Terminal Aerodrome Forecast
Issued by NWS Memphis, TN

Home | Current Version | Previous Version | Text Only | Print | Product List | Glossary On
Versions: 1 2 3 4 5 6 7 8 9 10 11 12 13 14 15 16
000
FTUS44 KMEG 280500
TAFMKL
TAF
KMKL 280520Z 2806/2906 00000KT 5SM BR FEW250
      TEMPO 2809/2812 1SM BR
     FM281400 VRB03KT P6SM SCT050 SCT250
     FM290200 00000KT P6SM FEW050 SCT250=

USA.gov is the U.S. government's official web portal to all federal, state and local government web resources and services.